createdAt,value
2019-03-30T00:01:05.228Z,5.93
2019-03-30T00:03:33.683Z,6.40
2019-03-30T00:06:02.122Z,6.27
2019-03-30T00:08:30.675Z,7.03
2019-03-30T00:10:59.183Z,6.30
2019-03-30T00:13:27.707Z,6.20
2019-03-30T00:15:56.163Z,7.60
2019-03-30T00:18:24.692Z,7.43
2019-03-30T00:20:53.154Z,6.30
2019-03-30T00:23:21.607Z,6.60
2019-03-30T00:25:50.138Z,7.10
2019-03-30T00:28:18.582Z,5.70
2019-03-30T00:30:47.031Z,5.93
2019-03-30T00:33:15.479Z,6.47
2019-03-30T00:35:43.948Z,7.00
2019-03-30T00:38:12.470Z,6.80
2019-03-30T00:40:40.915Z,6.73
2019-03-30T00:43:09.446Z,7.13
2019-03-30T00:45:37.892Z,7.90
2019-03-30T00:48:06.360Z,7.00
2019-03-30T00:50:34.803Z,5.90
2019-03-30T00:53:03.262Z,5.93
2019-03-30T00:55:31.778Z,6.80
2019-03-30T00:58:00.235Z,7.20
2019-03-30T01:00:28.787Z,6.90
2019-03-30T01:02:57.231Z,6.27
2019-03-30T01:05:25.759Z,6.53
2019-03-30T01:07:54.202Z,6.83
2019-03-30T01:10:22.667Z,6.97
2019-03-30T01:12:51.102Z,7.80
2019-03-30T01:15:19.557Z,7.60
2019-03-30T01:17:48.004Z,6.47
2019-03-30T01:20:16.463Z,8.57
2019-03-30T01:22:44.922Z,7.33
2019-03-30T01:25:13.587Z,8.37
2019-03-30T01:27:42.111Z,7.37
2019-03-30T01:30:22.510Z,7.30
2019-03-30T01:32:40.795Z,7.20
2019-03-30T01:35:09.352Z,7.40
2019-03-30T01:37:37.855Z,6.80
2019-03-30T01:40:07.740Z,6.87
2019-03-30T01:42:36.212Z,6.30
2019-03-30T01:45:07.859Z,7.43
2019-03-30T01:47:36.375Z,6.40
2019-03-30T01:50:17.222Z,7.07
2019-03-30T01:52:39.998Z,7.00
2019-03-30T01:55:08.671Z,6.93
2019-03-30T01:57:37.488Z,5.90
2019-03-30T02:00:08.259Z,7.90
2019-03-30T02:02:36.772Z,7.47
2019-03-30T02:05:06.840Z,6.87
2019-03-30T02:07:35.370Z,6.87
2019-03-30T02:10:06.044Z,7.80
2019-03-30T02:12:34.683Z,7.00
2019-03-30T02:15:03.770Z,6.87
2019-03-30T02:17:32.452Z,6.30
2019-03-30T02:20:01.016Z,6.70
2019-03-30T02:22:29.471Z,6.80
2019-03-30T02:24:57.934Z,7.97
2019-03-30T02:27:26.381Z,6.30
2019-03-30T02:29:54.835Z,6.80
2019-03-30T02:32:23.287Z,7.20
2019-03-30T02:34:51.831Z,6.60
2019-03-30T02:37:20.360Z,7.00
2019-03-30T02:39:48.816Z,6.53
2019-03-30T02:42:17.350Z,6.33
2019-03-30T02:44:45.792Z,6.97
2019-03-30T02:47:14.260Z,7.27
2019-03-30T02:49:42.773Z,6.40
2019-03-30T02:52:11.307Z,6.50
2019-03-30T02:54:39.755Z,7.60
2019-03-30T02:57:08.195Z,6.87
2019-03-30T02:59:36.666Z,6.57
2019-03-30T03:02:05.241Z,6.33
2019-03-30T03:04:33.699Z,6.73
2019-03-30T03:07:02.228Z,6.87
2019-03-30T03:09:30.674Z,6.43
2019-03-30T03:11:59.275Z,5.70
2019-03-30T03:14:27.716Z,5.90
2019-03-30T03:16:56.173Z,6.40
2019-03-30T03:19:24.692Z,6.87
2019-03-30T03:21:53.223Z,6.70
2019-03-30T03:24:21.668Z,7.20
2019-03-30T03:26:50.112Z,7.27
2019-03-30T03:29:18.561Z,7.53
2019-03-30T03:31:47.015Z,7.07
2019-03-30T03:34:15.551Z,6.53
2019-03-30T03:36:44.083Z,7.80
2019-03-30T03:39:12.528Z,6.13
2019-03-30T03:41:40.983Z,6.90
2019-03-30T03:44:09.428Z,7.43
2019-03-30T03:46:38.060Z,6.73
2019-03-30T03:49:06.507Z,6.80
2019-03-30T03:51:35.134Z,6.97
2019-03-30T03:54:03.974Z,6.80
2019-03-30T03:56:34.826Z,6.93
2019-03-30T03:59:04.938Z,6.57
2019-03-30T04:01:35.472Z,8.40
2019-03-30T04:04:05.602Z,8.30
2019-03-30T04:06:34.251Z,7.50
2019-03-30T04:09:05.065Z,7.07
2019-03-30T04:11:35.061Z,7.67
2019-03-30T04:14:04.457Z,6.37
2019-03-30T04:16:32.901Z,6.70
2019-03-30T04:19:01.546Z,7.40
2019-03-30T04:21:43.684Z,7.20
2019-03-30T04:24:00.252Z,7.80
2019-03-30T04:26:28.768Z,7.57
2019-03-30T04:28:57.232Z,7.63
2019-03-30T04:31:25.696Z,7.53
2019-03-30T04:33:54.151Z,6.83
2019-03-30T04:36:22.622Z,7.73
2019-03-30T04:38:51.169Z,7.20
2019-03-30T04:41:19.684Z,6.23
2019-03-30T04:43:48.211Z,7.00
2019-03-30T04:46:16.683Z,6.73
2019-03-30T04:48:45.140Z,7.20
2019-03-30T04:51:13.583Z,6.40
2019-03-30T04:53:42.038Z,7.43
2019-03-30T04:56:10.487Z,5.90
2019-03-30T04:58:38.946Z,6.00
2019-03-30T05:01:07.402Z,6.83
2019-03-30T05:03:35.852Z,6.83
2019-03-30T05:06:04.310Z,6.47
2019-03-30T05:08:32.755Z,6.50
2019-03-30T05:11:01.214Z,6.30
2019-03-30T05:13:29.679Z,6.10
2019-03-30T05:15:58.131Z,6.70
2019-03-30T05:18:26.575Z,8.53
2019-03-30T05:20:55.024Z,7.83
2019-03-30T05:23:23.559Z,7.50
2019-03-30T05:25:52.004Z,6.40
2019-03-30T05:28:20.501Z,7.23
2019-03-30T05:30:48.984Z,7.30
2019-03-30T05:33:17.454Z,6.47
2019-03-30T05:35:45.900Z,6.97
2019-03-30T05:38:14.432Z,5.77
2019-03-30T05:40:42.898Z,6.80
2019-03-30T05:43:11.407Z,6.93
2019-03-30T05:45:40.126Z,7.00
2019-03-30T05:48:08.607Z,6.50
2019-03-30T05:50:37.053Z,6.73
2019-03-30T05:53:05.587Z,7.13
2019-03-30T05:55:34.196Z,6.73
2019-03-30T05:58:02.715Z,7.10
2019-03-30T06:00:31.187Z,6.37
2019-03-30T06:02:59.642Z,7.40
2019-03-30T06:05:28.088Z,7.47
2019-03-30T06:07:56.633Z,6.17
2019-03-30T06:10:25.087Z,6.50
2019-03-30T06:12:53.537Z,6.70
2019-03-30T06:15:22.071Z,6.67
2019-03-30T06:17:50.516Z,7.23
2019-03-30T06:20:18.979Z,7.60
2019-03-30T06:22:47.423Z,6.43
2019-03-30T06:25:15.870Z,6.40
2019-03-30T06:27:44.399Z,7.60
2019-03-30T06:30:20.938Z,6.63
2019-03-30T06:32:49.389Z,7.30
2019-03-30T06:35:17.980Z,7.60
2019-03-30T06:37:46.580Z,6.50
2019-03-30T06:40:15.767Z,6.40
2019-03-30T06:42:44.351Z,7.20
2019-03-30T06:45:13.080Z,6.90
2019-03-30T06:47:41.607Z,7.23
2019-03-30T06:50:10.486Z,7.10
2019-03-30T06:52:42.756Z,6.83
2019-03-30T06:55:10.747Z,6.60
2019-03-30T06:57:39.275Z,7.83
2019-03-30T07:00:08.827Z,7.80
2019-03-30T07:02:37.521Z,8.97
2019-03-30T07:05:07.904Z,7.60
2019-03-30T07:07:38.086Z,7.70
2019-03-30T07:10:17.528Z,8.33
2019-03-30T07:12:47.863Z,7.87
2019-03-30T07:15:16.389Z,7.87
2019-03-30T07:17:46.172Z,8.67
2019-03-30T07:20:17.711Z,8.53
2019-03-30T07:22:46.155Z,8.20
2019-03-30T07:25:14.618Z,7.70
2019-03-30T07:27:43.083Z,9.17
2019-03-30T07:30:11.599Z,9.30
2019-03-30T07:32:40.060Z,9.37
2019-03-30T07:35:08.691Z,9.47
2019-03-30T07:37:37.195Z,10.00
2019-03-30T07:40:06.895Z,8.20
2019-03-30T07:42:35.338Z,7.67
2019-03-30T07:45:07.813Z,8.60
2019-03-30T07:47:36.363Z,8.57
2019-03-30T07:50:06.770Z,8.17
2019-03-30T07:52:35.227Z,7.70
2019-03-30T07:55:05.412Z,7.47
2019-03-30T07:57:33.894Z,7.17
2019-03-30T08:00:02.556Z,7.20
2019-03-30T08:02:31.051Z,7.90
2019-03-30T08:04:59.508Z,7.40
2019-03-30T08:07:27.967Z,6.67
2019-03-30T08:09:56.430Z,7.27
2019-03-30T08:12:24.873Z,6.90
2019-03-30T08:14:53.379Z,7.83
2019-03-30T08:17:22.181Z,7.47
2019-03-30T08:19:50.695Z,7.53
2019-03-30T08:22:19.139Z,7.53
2019-03-30T08:24:47.598Z,7.70
2019-03-30T08:27:16.047Z,7.40
2019-03-30T08:29:44.512Z,7.57
2019-03-30T08:32:12.973Z,8.77
2019-03-30T08:34:41.495Z,8.37
2019-03-30T08:37:09.958Z,8.10
2019-03-30T08:39:38.412Z,8.30
2019-03-30T08:42:06.876Z,10.27
2019-03-30T08:44:35.327Z,8.60
2019-03-30T08:47:03.787Z,8.40
2019-03-30T08:49:32.239Z,8.93
2019-03-30T08:52:00.711Z,8.40
2019-03-30T08:54:29.177Z,9.70
2019-03-30T08:56:57.622Z,8.87
2019-03-30T08:59:26.093Z,8.33
2019-03-30T09:01:54.538Z,9.03
2019-03-30T09:04:23.092Z,8.60
2019-03-30T09:06:51.527Z,7.93
2019-03-30T09:09:20.005Z,8.67
2019-03-30T09:11:48.542Z,7.93
2019-03-30T09:14:17.004Z,9.47
2019-03-30T09:16:45.540Z,9.27
2019-03-30T09:19:14.030Z,9.10
2019-03-30T09:21:42.571Z,8.43
2019-03-30T09:24:11.040Z,7.20
2019-03-30T09:26:39.503Z,8.50
2019-03-30T09:29:07.965Z,9.20
2019-03-30T09:31:36.434Z,8.80
2019-03-30T09:34:05.023Z,9.00
2019-03-30T09:36:33.522Z,8.27
2019-03-30T09:39:02.024Z,8.30
2019-03-30T09:41:30.510Z,7.57
2019-03-30T09:43:59.003Z,8.43
2019-03-30T09:46:27.461Z,8.43
2019-03-30T09:48:55.926Z,8.40
2019-03-30T09:51:24.448Z,8.20
2019-03-30T09:53:52.914Z,7.80
2019-03-30T09:56:21.709Z,8.70
2019-03-30T09:58:50.253Z,8.33
2019-03-30T10:01:18.784Z,7.80
2019-03-30T10:03:47.243Z,7.50
2019-03-30T10:06:15.691Z,7.63
2019-03-30T10:08:44.511Z,7.07
2019-03-30T10:11:12.970Z,7.67
2019-03-30T10:13:41.488Z,7.70
2019-03-30T10:16:09.951Z,7.97
2019-03-30T10:18:38.495Z,8.33
2019-03-30T10:21:06.958Z,8.43
2019-03-30T10:23:35.412Z,8.93
2019-03-30T10:26:03.944Z,8.60
2019-03-30T10:28:32.391Z,8.03
2019-03-30T10:31:00.923Z,8.10
2019-03-30T10:33:29.385Z,8.13
2019-03-30T10:35:57.843Z,8.13
2019-03-30T10:38:26.307Z,8.40
2019-03-30T10:40:54.749Z,8.10
2019-03-30T10:43:23.207Z,7.67
2019-03-30T10:45:51.723Z,7.43
2019-03-30T10:48:20.190Z,7.23
2019-03-30T10:50:48.654Z,8.20
2019-03-30T10:53:17.119Z,7.70
2019-03-30T10:55:45.580Z,7.67
2019-03-30T10:58:14.046Z,8.87
2019-03-30T11:00:42.649Z,7.33
2019-03-30T11:03:11.095Z,8.27
2019-03-30T11:05:39.560Z,8.20
2019-03-30T11:08:08.032Z,7.30
2019-03-30T11:10:36.543Z,8.03
2019-03-30T11:13:05.109Z,7.30
2019-03-30T11:15:34.322Z,7.80
2019-03-30T11:18:03.083Z,7.87
2019-03-30T11:20:31.557Z,7.07
2019-03-30T11:23:00.091Z,7.70
2019-03-30T11:25:28.535Z,8.47
2019-03-30T11:27:57.088Z,11.27
2019-03-30T11:30:25.540Z,7.80
2019-03-30T11:32:54.006Z,9.10
2019-03-30T11:35:22.454Z,8.03
2019-03-30T11:37:50.923Z,7.80
2019-03-30T11:40:19.386Z,10.57
2019-03-30T11:42:47.845Z,8.50
2019-03-30T11:45:16.375Z,8.37
2019-03-30T11:47:44.827Z,7.60
2019-03-30T11:50:13.440Z,9.87
2019-03-30T11:52:41.903Z,7.30
2019-03-30T11:55:21.182Z,7.60
2019-03-30T11:57:40.756Z,8.90
2019-03-30T12:00:09.810Z,8.10
2019-03-30T12:02:38.274Z,7.53
2019-03-30T12:05:07.816Z,6.63
2019-03-30T12:07:36.425Z,8.67
2019-03-30T12:10:06.226Z,6.87
2019-03-30T12:12:37.292Z,6.40
2019-03-30T12:15:07.487Z,6.77
2019-03-30T12:17:35.999Z,5.87
2019-03-30T12:20:06.408Z,6.00
2019-03-30T12:22:34.927Z,6.77
2019-03-30T12:25:03.643Z,6.90
2019-03-30T12:27:32.102Z,6.17
2019-03-30T12:30:00.553Z,7.30
2019-03-30T12:32:29.077Z,6.80
2019-03-30T12:34:57.550Z,6.90
2019-03-30T12:37:26.073Z,7.07
2019-03-30T12:39:56.719Z,7.10
2019-03-30T12:42:24.706Z,7.27
2019-03-30T12:44:53.176Z,7.03
2019-03-30T12:47:21.630Z,7.27
2019-03-30T12:49:50.074Z,7.67
2019-03-30T12:52:18.544Z,6.80
2019-03-30T12:54:46.993Z,6.83
2019-03-30T12:57:15.455Z,6.97
2019-03-30T12:59:43.915Z,7.07
2019-03-30T13:02:12.435Z,7.10
2019-03-30T13:04:40.903Z,7.00
2019-03-30T13:07:09.367Z,6.60
2019-03-30T13:09:37.822Z,6.97
2019-03-30T13:12:06.339Z,6.17
2019-03-30T13:14:34.806Z,7.57
2019-03-30T13:17:03.396Z,6.93
2019-03-30T13:19:31.935Z,7.80
2019-03-30T13:22:00.378Z,6.27
2019-03-30T13:24:29.151Z,7.00
2019-03-30T13:26:57.600Z,7.07
2019-03-30T13:29:26.042Z,6.87
2019-03-30T13:31:54.511Z,6.97
2019-03-30T13:34:22.959Z,7.20
2019-03-30T13:36:51.424Z,7.73
2019-03-30T13:39:19.951Z,7.13
2019-03-30T13:41:48.473Z,7.37
2019-03-30T13:44:16.932Z,7.00
2019-03-30T13:46:45.447Z,6.50
2019-03-30T13:49:13.910Z,7.20
2019-03-30T13:51:42.378Z,6.90
2019-03-30T13:54:10.835Z,6.97
2019-03-30T13:56:39.287Z,7.10
2019-03-30T13:59:07.747Z,6.50
2019-03-30T14:01:36.191Z,6.97
2019-03-30T14:04:04.721Z,6.63
2019-03-30T14:06:33.256Z,6.13
2019-03-30T14:09:01.768Z,6.87
2019-03-30T14:11:30.252Z,7.17
2019-03-30T14:13:58.756Z,6.80
2019-03-30T14:16:28.092Z,5.90
2019-03-30T14:18:56.623Z,6.30
2019-03-30T14:21:25.075Z,7.80
2019-03-30T14:23:53.545Z,6.00
2019-03-30T14:26:31.374Z,6.03
2019-03-30T14:28:52.258Z,8.00
2019-03-30T14:31:20.775Z,6.27
2019-03-30T14:33:49.230Z,6.70
2019-03-30T14:36:17.718Z,6.40
2019-03-30T14:38:46.220Z,5.57
2019-03-30T14:41:14.759Z,6.03
2019-03-30T14:43:43.203Z,6.20
2019-03-30T14:46:11.670Z,6.80
2019-03-30T14:48:40.181Z,6.63
2019-03-30T14:51:08.640Z,6.53
2019-03-30T14:53:37.097Z,6.37
2019-03-30T14:56:05.699Z,6.87
2019-03-30T14:58:34.168Z,6.50
2019-03-30T15:01:03.329Z,5.60
2019-03-30T15:03:31.947Z,6.47
2019-03-30T15:06:00.588Z,7.00
2019-03-30T15:08:29.032Z,6.50
2019-03-30T15:10:57.499Z,6.27
2019-03-30T15:13:25.963Z,6.30
2019-03-30T15:15:54.431Z,7.33
2019-03-30T15:18:22.876Z,6.20
2019-03-30T15:20:51.340Z,6.40
2019-03-30T15:23:19.780Z,5.30
2019-03-30T15:25:48.306Z,6.97
2019-03-30T15:28:16.758Z,6.47
2019-03-30T15:30:45.215Z,7.13
2019-03-30T15:33:13.731Z,6.20
2019-03-30T15:35:42.355Z,6.87
2019-03-30T15:38:10.871Z,7.07
2019-03-30T15:40:39.346Z,6.67
2019-03-30T15:43:07.874Z,6.30
2019-03-30T15:45:36.400Z,7.50
2019-03-30T15:48:04.854Z,6.93
2019-03-30T15:50:33.352Z,6.30
2019-03-30T15:53:01.839Z,6.57
2019-03-30T15:55:30.287Z,6.00
2019-03-30T15:57:58.825Z,6.70
2019-03-30T16:00:27.422Z,5.83
2019-03-30T16:02:56.103Z,7.80
2019-03-30T16:05:24.676Z,8.00
2019-03-30T16:07:53.194Z,7.13
2019-03-30T16:10:21.647Z,7.70
2019-03-30T16:12:50.110Z,8.30
2019-03-30T16:15:18.627Z,6.70
2019-03-30T16:17:47.086Z,7.63
2019-03-30T16:20:15.603Z,7.70
2019-03-30T16:22:45.006Z,7.77
2019-03-30T16:25:13.766Z,6.57
2019-03-30T16:27:42.218Z,6.63
2019-03-30T16:30:11.524Z,6.40
2019-03-30T16:32:40.115Z,6.50
2019-03-30T16:35:08.845Z,6.57
2019-03-30T16:37:37.356Z,6.70
2019-03-30T16:40:07.163Z,6.03
2019-03-30T16:42:36.343Z,6.40
2019-03-30T16:45:07.758Z,6.57
2019-03-30T16:47:36.223Z,7.00
2019-03-30T16:50:07.183Z,7.20
2019-03-30T16:52:35.650Z,8.07
2019-03-30T16:55:04.679Z,9.30
2019-03-30T16:57:43.026Z,8.33
2019-03-30T17:00:04.452Z,7.70
2019-03-30T17:02:32.911Z,6.50
2019-03-30T17:05:01.379Z,7.90
2019-03-30T17:07:29.827Z,7.43
2019-03-30T17:09:58.326Z,6.80
2019-03-30T17:12:26.808Z,7.50
2019-03-30T17:14:55.344Z,6.70
2019-03-30T17:17:23.800Z,7.00
2019-03-30T17:19:52.242Z,7.30
2019-03-30T17:22:20.714Z,8.10
2019-03-30T17:24:49.244Z,7.57
2019-03-30T17:27:17.708Z,7.53
2019-03-30T17:29:46.160Z,6.57
2019-03-30T17:32:14.627Z,6.40
2019-03-30T17:34:43.079Z,6.93
2019-03-30T17:37:14.342Z,6.60
2019-03-30T17:39:41.846Z,6.67
2019-03-30T17:42:10.374Z,6.83
2019-03-30T17:44:38.823Z,8.07
2019-03-30T17:47:07.287Z,7.27
2019-03-30T17:49:35.751Z,6.40
2019-03-30T17:52:04.209Z,7.70
2019-03-30T17:54:32.742Z,6.63
2019-03-30T17:57:01.293Z,6.77
2019-03-30T17:59:29.778Z,7.57
2019-03-30T18:01:58.366Z,6.47
2019-03-30T18:04:26.816Z,7.43
2019-03-30T18:06:55.408Z,6.77
2019-03-30T18:09:24.007Z,7.40
2019-03-30T18:11:52.478Z,6.30
2019-03-30T18:14:20.943Z,6.47
2019-03-30T18:16:49.415Z,5.70
2019-03-30T18:19:17.876Z,5.83
2019-03-30T18:21:46.339Z,5.67
2019-03-30T18:24:14.807Z,5.83
2019-03-30T18:26:43.271Z,5.90
2019-03-30T18:29:11.724Z,5.57
2019-03-30T18:31:40.706Z,6.03
2019-03-30T18:34:09.241Z,6.80
2019-03-30T18:36:39.440Z,6.60
2019-03-30T18:39:09.833Z,6.37
2019-03-30T18:41:38.272Z,6.00
2019-03-30T18:44:06.730Z,7.00
2019-03-30T18:46:35.200Z,14.23
2019-03-30T18:49:03.710Z,8.10
2019-03-30T18:51:32.347Z,9.30
2019-03-30T18:54:01.134Z,7.10
2019-03-30T18:56:29.633Z,8.00
2019-03-30T18:58:58.143Z,7.43
2019-03-30T19:01:26.772Z,6.80
2019-03-30T19:03:55.223Z,8.17
2019-03-30T19:06:23.665Z,6.97
2019-03-30T19:08:52.124Z,7.70
2019-03-30T19:11:20.572Z,8.57
2019-03-30T19:13:51.382Z,9.13
2019-03-30T19:16:19.211Z,9.20
2019-03-30T19:18:47.671Z,8.37
2019-03-30T19:21:16.199Z,7.93
2019-03-30T19:23:44.643Z,8.97
2019-03-30T19:26:13.107Z,8.50
2019-03-30T19:28:55.289Z,8.63
2019-03-30T19:31:11.734Z,9.10
2019-03-30T19:33:40.270Z,9.73
2019-03-30T19:36:10.157Z,9.50
2019-03-30T19:38:38.836Z,9.90
2019-03-30T19:41:07.433Z,10.07
2019-03-30T19:43:35.891Z,9.47
2019-03-30T19:46:04.610Z,9.57
2019-03-30T19:48:36.699Z,9.97
2019-03-30T19:51:03.415Z,10.30
2019-03-30T19:53:31.863Z,10.10
2019-03-30T19:56:00.463Z,9.43
2019-03-30T19:58:28.911Z,9.67
2019-03-30T20:00:57.372Z,9.50
2019-03-30T20:03:25.815Z,9.53
2019-03-30T20:05:54.279Z,8.90
2019-03-30T20:08:22.800Z,9.00
2019-03-30T20:10:51.261Z,9.30
2019-03-30T20:13:19.795Z,9.83
2019-03-30T20:15:48.519Z,10.10
2019-03-30T20:18:17.051Z,9.10
2019-03-30T20:20:45.490Z,7.77
2019-03-30T20:23:13.949Z,8.33
2019-03-30T20:25:42.475Z,8.30
2019-03-30T20:28:10.935Z,9.10
2019-03-30T20:30:39.386Z,8.57
2019-03-30T20:33:07.988Z,8.23
2019-03-30T20:35:36.443Z,7.30
2019-03-30T20:38:04.947Z,6.57
2019-03-30T20:40:33.474Z,7.13
2019-03-30T20:43:01.911Z,6.83
2019-03-30T20:45:30.371Z,6.63
2019-03-30T20:47:58.883Z,7.03
2019-03-30T20:50:27.342Z,8.07
2019-03-30T20:52:55.863Z,9.03
2019-03-30T20:55:24.325Z,8.40
2019-03-30T20:57:52.922Z,8.43
2019-03-30T21:00:21.510Z,9.13
2019-03-30T21:02:49.962Z,8.00
2019-03-30T21:05:18.488Z,8.13
2019-03-30T21:07:47.014Z,8.00
2019-03-30T21:10:15.543Z,8.47
2019-03-30T21:12:43.983Z,7.47
2019-03-30T21:15:12.882Z,8.50
2019-03-30T21:17:41.331Z,7.07
2019-03-30T21:20:10.014Z,7.10
2019-03-30T21:22:38.464Z,6.77
2019-03-30T21:25:07.047Z,6.83
2019-03-30T21:27:35.503Z,6.20
2019-03-30T21:30:06.987Z,7.37
2019-03-30T21:32:35.453Z,7.17
2019-03-30T21:35:06.060Z,7.17
2019-03-30T21:37:34.504Z,6.97
2019-03-30T21:40:03.739Z,7.37
2019-03-30T21:42:32.253Z,7.97
2019-03-30T21:45:00.693Z,7.23
2019-03-30T21:47:29.151Z,7.17
2019-03-30T21:49:57.591Z,7.80
2019-03-30T21:52:26.057Z,6.90
2019-03-30T21:54:57.839Z,7.40
2019-03-30T21:57:24.771Z,7.30
2019-03-30T21:59:53.300Z,7.87
2019-03-30T22:02:21.745Z,7.63
2019-03-30T22:04:50.195Z,7.13
2019-03-30T22:07:18.875Z,7.10
2019-03-30T22:09:47.471Z,6.90
2019-03-30T22:12:15.919Z,7.20
2019-03-30T22:14:44.382Z,7.33
2019-03-30T22:17:12.827Z,8.23
2019-03-30T22:19:41.271Z,8.80
2019-03-30T22:22:09.735Z,8.43
2019-03-30T22:24:38.199Z,8.37
2019-03-30T22:27:06.783Z,7.30
2019-03-30T22:29:35.244Z,7.67
2019-03-30T22:32:03.742Z,8.47
2019-03-30T22:34:32.268Z,7.77
2019-03-30T22:37:00.728Z,7.73
2019-03-30T22:39:29.191Z,7.23
2019-03-30T22:41:57.638Z,7.53
2019-03-30T22:44:26.189Z,6.57
2019-03-30T22:46:54.735Z,7.17
2019-03-30T22:49:23.183Z,6.93
2019-03-30T22:51:51.642Z,7.57
2019-03-30T22:54:20.091Z,7.13
2019-03-30T22:56:48.547Z,6.83
2019-03-30T22:59:16.987Z,6.93
2019-03-30T23:01:45.439Z,7.13
2019-03-30T23:04:13.969Z,7.17
2019-03-30T23:06:42.408Z,6.40
2019-03-30T23:09:11.604Z,7.13
2019-03-30T23:11:40.305Z,7.63
2019-03-30T23:14:09.039Z,7.93
2019-03-30T23:16:37.492Z,7.50
2019-03-30T23:19:05.941Z,6.97
2019-03-30T23:21:34.396Z,7.53
2019-03-30T23:24:02.855Z,7.57
2019-03-30T23:26:31.380Z,7.73
2019-03-30T23:28:59.903Z,7.00
2019-03-30T23:31:28.426Z,7.47
2019-03-30T23:33:56.943Z,7.87
2019-03-30T23:36:25.476Z,7.10
2019-03-30T23:38:54.007Z,7.37
2019-03-30T23:41:22.542Z,8.37
2019-03-30T23:43:50.987Z,6.60
2019-03-30T23:46:19.431Z,7.77
2019-03-30T23:48:47.887Z,7.07
2019-03-30T23:51:16.334Z,7.63
2019-03-30T23:53:44.862Z,6.70
2019-03-30T23:56:24.050Z,7.50
2019-03-30T23:58:53.119Z,7.60
